CDT,Max TemperatureF,Mean TemperatureF,Min TemperatureF,Max Dew PointF,MeanDew PointF,Min DewpointF,Max Humidity, Mean Humidity, Min Humidity, Max Sea Level PressureIn, Mean Sea Level PressureIn, Min Sea Level PressureIn, Max VisibilityMiles, Mean VisibilityMiles, Min VisibilityMiles, Max Wind SpeedMPH, Mean Wind SpeedMPH, Max Gust SpeedMPH,PrecipitationIn, CloudCover, Events, WindDirDegrees
2013-3-1,31,29,27,27,24,19,92,81,69,30.31,30.23,30.14,10,6,1,17,11,22,T,8,Snow,328
2013-3-2,29,23,17,21,16,11,81,70,58,30.38,30.32,30.25,10,10,8,17,8,20,0.00,5,,325
2013-3-3,40,28,16,25,19,12,88,68,48,30.25,30.05,29.88,10,10,9,17,9,21,0.00,4,,130
2013-3-4,49,42,34,31,29,23,70,60,50,29.92,29.78,29.70,10,10,10,15,11,,0.00,1,,85
2013-3-5,37,34,30,32,24,18,96,75,54,30.32,30.11,29.92,10,9,2,30,19,40,T,8,Snow,305
2013-3-6,34,29,23,20,19,18,81,69,56,30.46,30.39,30.32,10,10,10,22,7,28,0.00,4,,338
2013-3-7,45,33,20,29,23,16,84,69,53,30.37,30.31,30.22,10,10,8,12,8,15,0.00,0,,102
2013-3-8,48,41,33,34,30,26,82,68,54,30.29,30.22,30.09,10,10,9,13,9,16,0.08,3,Rain,122
2013-3-9,66,53,39,53,41,34,92,69,46,30.09,29.89,29.70,10,8,2,22,14,28,0.57,8,Rain,164
2013-3-10,58,45,32,54,46,28,93,87,80,29.86,29.70,29.58,10,7,2,22,13,51,0.71,8,Rain,208
2013-3-11,37,33,29,28,25,24,85,75,64,30.03,29.91,29.82,10,9,6,23,13,33,0.00,6,,277
2013-3-12,48,39,29,30,24,21,72,59,45,30.33,30.18,30.05,10,10,10,30,11,36,0.00,2,,291
2013-3-13,43,35,27,24,21,19,75,59,43,30.51,30.42,30.33,10,10,10,16,7,20,0.00,1,,327
2013-3-14,68,49,29,44,33,21,78,58,37,30.39,30.18,30.07,10,10,10,26,9,35,0.00,1,,220
2013-3-15,79,60,41,48,43,37,86,59,32,30.07,29.85,29.68,10,10,10,22,11,28,0.00,0,,219
2013-3-16,65,52,38,48,37,30,92,72,52,30.08,29.94,29.67,10,8,2,25,13,32,T,6,,9
2013-3-17,40,37,34,34,31,28,92,81,70,30.07,29.96,29.77,10,8,3,18,12,25,0.14,8,Rain,70
2013-3-18,53,43,33,37,32,19,92,65,38,30.09,29.84,29.74,10,6,1,26,11,33,T,6,,310
2013-3-19,44,37,30,34,25,15,85,60,34,30.26,30.21,30.08,10,10,8,14,6,25,0.00,6,,279
2013-3-20,37,32,26,34,20,6,92,62,32,30.38,30.27,30.18,10,8,3,24,11,29,0.00,2,,305
2013-3-21,34,28,22,28,19,9,92,67,41,30.16,30.04,29.95,10,7,1,14,7,16,T,6,Snow,114
2013-3-22,36,33,30,34,31,27,92,85,78,30.03,29.98,29.95,10,4,1,12,6,15,0.02,8,Snow,81
2013-3-23,46,40,33,36,32,27,96,75,53,30.04,29.95,29.87,10,7,1,18,10,25,0.38,8,Rain-Snow,40
2013-3-24,34,31,27,32,29,20,100,85,69,30.04,29.84,29.71,10,2,0,31,19,36,0.17,8,Fog-Snow,344
2013-3-25,33,28,23,27,23,18,81,71,61,30.32,30.13,29.99,10,6,2,23,15,32,T,7,Snow,300
2013-3-26,38,30,22,25,21,18,88,70,52,30.43,30.37,30.32,10,10,10,13,6,22,0.00,1,,287
2013-3-27,46,36,25,32,26,21,84,69,53,30.38,30.33,30.26,10,10,10,15,7,17,T,5,,121
2013-3-28,63,52,40,41,36,31,76,58,39,30.28,30.22,30.15,10,10,10,14,7,21,0.01,5,Rain,102
2013-3-29,67,54,40,46,39,35,86,59,32,30.23,30.19,30.15,10,9,5,14,6,18,0.02,2,Rain-Thunderstorm,75
2013-3-30,57,51,44,52,47,37,93,80,66,30.14,29.98,29.89,10,7,1,18,8,24,0.30,5,Rain,143
2013-3-31,67,55,43,49,43,31,100,71,42,29.97,29.94,29.91,10,5,0,22,9,28,0.00,3,Fog,306